Time;durP1;ratioP1;P1;durP2;ratioP2;P2;SDS_P1;SDS_P2;PMS_P1;PMS_P2;Temp;Humidity;BMP_temperature;BMP_pressure;BME280_temperature;BME280_humidity;BME280_pressure;Samples;Min_cycle;Max_cycle;Signal;HPM_P1;HPM_P2
2021/10/30 00:00:34;;;;;;;13.50;6.13;;;;;;;-145.18;100.00;60484.78;5059592;28;20767;-71
2021/10/30 00:03:00;;;;;;;12.37;5.50;;;;;;;-145.18;100.00;60484.78;5058788;28;20132;-72
2021/10/30 00:05:25;;;;;;;12.93;6.03;;;;;;;-145.18;100.00;60484.78;5058923;28;20036;-71
2021/10/30 00:07:52;;;;;;;11.80;5.87;;;;;;;-145.18;100.00;60484.78;5058254;28;20044;-71
2021/10/30 00:10:17;;;;;;;13.13;6.10;;;;;;;-145.18;100.00;60484.78;5060787;28;20479;-71
2021/10/30 00:12:43;;;;;;;12.97;5.63;;;;;;;-145.18;100.00;60484.78;5060840;28;20064;-71
2021/10/30 00:15:11;;;;;;;11.70;5.87;;;;;;;-145.18;100.00;60484.78;5060264;28;20447;-71
2021/10/30 00:17:36;;;;;;;11.60;5.60;;;;;;;-145.18;100.00;60484.78;5061447;28;20036;-71
2021/10/30 00:20:03;;;;;;;12.30;5.57;;;;;;;-145.18;100.00;60484.78;5059151;28;20024;-71
2021/10/30 00:22:31;;;;;;;14.20;6.03;;;;;;;-145.18;100.00;60484.78;5061408;28;20478;-71
2021/10/30 00:24:57;;;;;;;11.87;5.63;;;;;;;-145.18;100.00;60484.78;5058647;28;20020;-71
2021/10/30 00:27:23;;;;;;;12.33;5.33;;;;;;;-145.18;100.00;60484.78;5059408;28;20040;-71
2021/10/30 00:29:48;;;;;;;12.73;6.13;;;;;;;-145.18;100.00;60484.78;5059998;28;20025;-70
2021/10/30 00:32:14;;;;;;;13.97;5.57;;;;;;;-145.18;100.00;60484.78;5060511;28;20348;-70
2021/10/30 00:34:39;;;;;;;11.03;5.93;;;;;;;-145.18;100.00;60484.78;5060560;28;20036;-70
2021/10/30 00:37:05;;;;;;;11.40;4.90;;;;;;;-145.18;100.00;60484.78;5060047;28;20063;-70
2021/10/30 00:39:31;;;;;;;11.10;5.33;;;;;;;-145.18;100.00;60484.78;5059582;28;20573;-70
2021/10/30 00:41:57;;;;;;;9.00;4.73;;;;;;;-145.18;100.00;60484.78;5061128;28;20024;-70
2021/10/30 00:44:22;;;;;;;12.73;5.27;;;;;;;-145.18;100.00;60484.78;5061227;28;20354;-71
2021/10/30 00:46:50;;;;;;;10.47;5.10;;;;;;;-145.18;100.00;60484.78;5061739;28;20572;-71
2021/10/30 00:49:25;;;;;;;10.50;5.00;;;;;;;-145.18;100.00;60484.78;5061252;28;20103;-71
2021/10/30 00:51:59;;;;;;;11.93;5.70;;;;;;;-145.18;100.00;60484.78;5062899;28;20033;-70
2021/10/30 00:54:26;;;;;;;9.87;4.60;;;;;;;-145.18;100.00;60484.78;5060684;28;20404;-71
2021/10/30 00:56:54;;;;;;;11.23;5.60;;;;;;;-145.18;100.00;60484.78;5060152;28;20024;-71
2021/10/30 00:59:21;;;;;;;11.67;5.30;;;;;;;-145.18;100.00;60484.78;5059539;28;20074;-71
2021/10/30 01:01:48;;;;;;;12.10;4.70;;;;;;;-145.18;100.00;60484.78;5059704;28;20301;-70
2021/10/30 01:04:15;;;;;;;11.33;5.63;;;;;;;-145.18;100.00;60484.78;5070540;22;20080;-70
2021/10/30 01:06:44;;;;;;;10.37;5.30;;;;;;;-145.18;100.00;60484.78;5075383;28;20406;-71
2021/10/30 01:09:12;;;;;;;11.20;5.17;;;;;;;-145.18;100.00;60484.78;5077321;28;20510;-71
2021/10/30 01:11:40;;;;;;;8.93;4.67;;;;;;;-145.18;100.00;60484.78;5075826;28;20024;-71
2021/10/30 01:14:07;;;;;;;9.67;5.10;;;;;;;-145.18;100.00;60484.78;5072423;28;20028;-71
2021/10/30 01:16:32;;;;;;;12.07;5.13;;;;;;;-145.18;100.00;60484.78;5077065;28;20024;-71
2021/10/30 01:19:01;;;;;;;11.33;5.80;;;;;;;-145.18;100.00;60484.78;5077708;28;20027;-71
2021/10/30 01:21:30;;;;;;;12.70;5.33;;;;;;;-145.18;100.00;60484.78;5075164;28;20024;-70
2021/10/30 01:23:56;;;;;;;8.97;5.00;;;;;;;-145.18;100.00;60484.78;5067156;28;20061;-72
2021/10/30 01:26:22;;;;;;;10.80;4.90;;;;;;;-145.18;100.00;60484.78;5069402;28;20024;-71
2021/10/30 01:28:49;;;;;;;11.10;5.00;;;;;;;-145.18;100.00;60484.78;5071457;28;20081;-71
2021/10/30 01:31:15;;;;;;;10.83;5.10;;;;;;;-145.18;100.00;60484.78;5076263;28;20157;-70
2021/10/30 01:33:42;;;;;;;9.17;5.07;;;;;;;-145.18;100.00;60484.78;5078471;28;20372;-71
2021/10/30 01:36:12;;;;;;;11.30;5.00;;;;;;;-145.18;100.00;60484.78;5070187;28;20468;-71
2021/10/30 01:38:38;;;;;;;12.10;5.23;;;;;;;-145.18;100.00;60484.78;5072458;28;20609;-71
2021/10/30 01:41:04;;;;;;;11.37;4.33;;;;;;;-145.18;100.00;60484.78;5074201;28;20032;-71
2021/10/30 01:43:30;;;;;;;12.07;4.93;;;;;;;-145.18;100.00;60484.78;5071444;28;20120;-70
2021/10/30 01:45:55;;;;;;;9.50;4.40;;;;;;;-145.18;100.00;60484.78;5075551;28;20031;-71
2021/10/30 01:48:28;;;;;;;11.03;4.67;;;;;;;-145.18;100.00;60484.78;5071608;28;20041;-71
2021/10/30 01:50:54;;;;;;;10.07;5.13;;;;;;;-145.18;100.00;60484.78;5070258;28;20020;-71
2021/10/30 01:53:19;;;;;;;9.13;4.17;;;;;;;-145.18;100.00;60484.78;5072170;28;20275;-70
2021/10/30 01:55:46;;;;;;;10.50;4.90;;;;;;;-145.18;100.00;60484.78;5075945;28;20275;-71
2021/10/30 01:58:13;;;;;;;9.63;4.70;;;;;;;-145.18;100.00;60484.78;5072565;28;20032;-70
2021/10/30 02:00:39;;;;;;;13.13;4.43;;;;;;;-145.18;100.00;60484.78;5076117;28;20032;-71
2021/10/30 02:03:04;;;;;;;11.10;4.53;;;;;;;-145.18;100.00;60484.78;5066330;28;20039;-71
2021/10/30 02:05:30;;;;;;;11.47;4.70;;;;;;;-145.18;100.00;60484.78;5074257;28;20052;-70
2021/10/30 02:07:55;;;;;;;8.60;4.27;;;;;;;-145.18;100.00;60484.78;5082190;28;20561;-70
2021/10/30 02:10:21;;;;;;;10.83;4.83;;;;;;;-145.18;100.00;60484.78;5077445;28;20027;-70
2021/10/30 02:12:47;;;;;;;10.07;4.10;;;;;;;-145.18;100.00;60484.78;5080119;28;20031;-71
2021/10/30 02:15:12;;;;;;;8.17;4.10;;;;;;;-145.18;100.00;60484.78;5081080;28;20523;-70
2021/10/30 02:17:38;;;;;;;7.50;4.03;;;;;;;-145.18;100.00;60484.78;5080727;28;20376;-71
2021/10/30 02:20:06;;;;;;;7.43;3.90;;;;;;;-145.18;100.00;60484.78;5081484;28;20020;-71
2021/10/30 02:22:32;;;;;;;8.40;3.90;;;;;;;-145.18;100.00;60484.78;5075152;28;20244;-71
2021/10/30 02:24:57;;;;;;;10.93;3.87;;;;;;;-145.18;100.00;60484.78;5073568;28;20032;-71
2021/10/30 02:27:23;;;;;;;7.87;3.90;;;;;;;-145.18;100.00;60484.78;5079398;28;20024;-71
2021/10/30 02:29:48;;;;;;;8.57;4.40;;;;;;;-145.18;100.00;60484.78;5071846;28;20036;-72
2021/10/30 02:32:14;;;;;;;8.73;4.23;;;;;;;-145.18;100.00;60484.78;5080501;28;20024;-71
2021/10/30 02:34:40;;;;;;;9.40;4.47;;;;;;;-145.18;100.00;60484.78;5076463;28;20024;-71
2021/10/30 02:37:07;;;;;;;8.60;4.20;;;;;;;-145.18;100.00;60484.78;5080691;28;20032;-70
2021/10/30 02:39:32;;;;;;;9.60;4.57;;;;;;;-145.18;100.00;60484.78;5076842;28;20059;-70
2021/10/30 02:41:58;;;;;;;9.93;4.63;;;;;;;-145.18;100.00;60484.78;5076651;28;20382;-71
2021/10/30 02:44:24;;;;;;;7.63;4.00;;;;;;;-145.18;100.00;60484.78;5073960;28;20516;-71
2021/10/30 02:46:50;;;;;;;8.73;4.60;;;;;;;-145.18;100.00;60484.78;5074609;28;20032;-66
2021/10/30 02:49:16;;;;;;;7.43;3.90;;;;;;;-145.18;100.00;60484.78;5078884;28;20365;-66
2021/10/30 02:51:42;;;;;;;7.67;4.37;;;;;;;-145.18;100.00;60484.78;5075392;28;20092;-66
2021/10/30 02:54:07;;;;;;;8.30;4.20;;;;;;;-145.18;100.00;60484.78;5079826;28;20044;-66
2021/10/30 02:56:33;;;;;;;7.17;3.87;;;;;;;-145.18;100.00;60484.78;5081155;28;20052;-67
2021/10/30 02:58:58;;;;;;;8.10;3.87;;;;;;;-145.18;100.00;60484.78;5080415;28;20533;-67
2021/10/30 03:01:25;;;;;;;7.07;3.53;;;;;;;-145.18;100.00;60484.78;5077955;28;20059;-66
2021/10/30 03:03:51;;;;;;;7.40;3.70;;;;;;;-145.18;100.00;60484.78;5078061;28;20048;-66
2021/10/30 03:06:16;;;;;;;7.37;3.70;;;;;;;-145.18;100.00;60484.78;5070070;28;20081;-66
2021/10/30 03:08:42;;;;;;;6.73;3.63;;;;;;;-145.18;100.00;60484.78;5081380;28;20548;-67
2021/10/30 03:11:07;;;;;;;8.93;3.73;;;;;;;-145.18;100.00;60484.78;5080651;28;20024;-66
2021/10/30 03:13:33;;;;;;;9.87;3.67;;;;;;;-145.18;100.00;60484.78;5080080;28;20103;-66
2021/10/30 03:15:58;;;;;;;11.23;4.47;;;;;;;-145.18;100.00;60484.78;5078825;28;20407;-66
2021/10/30 03:18:24;;;;;;;8.83;4.07;;;;;;;-145.18;100.00;60484.78;5078322;28;20036;-66
2021/10/30 03:20:49;;;;;;;9.70;4.63;;;;;;;-145.18;100.00;60484.78;5075506;28;20027;-66
2021/10/30 03:23:15;;;;;;;8.60;4.03;;;;;;;-145.18;100.00;60484.78;5075945;28;20614;-66
2021/10/30 03:25:41;;;;;;;8.43;4.07;;;;;;;-145.18;100.00;60484.78;5074343;28;20016;-66
2021/10/30 03:28:07;;;;;;;8.20;3.93;;;;;;;-145.18;100.00;60484.78;5067908;28;20031;-66
2021/10/30 03:30:33;;;;;;;7.30;3.63;;;;;;;-145.18;100.00;60484.78;5072396;28;20495;-66
2021/10/30 03:32:59;;;;;;;7.43;3.67;;;;;;;-145.18;100.00;60484.78;5079961;28;20024;-65
2021/10/30 03:35:25;;;;;;;7.77;3.33;;;;;;;-145.18;100.00;60484.78;5078632;28;20504;-65
2021/10/30 03:37:50;;;;;;;9.33;3.80;;;;;;;-145.18;100.00;60484.78;5080194;28;20499;-65
2021/10/30 03:40:16;;;;;;;8.27;4.10;;;;;;;-145.18;100.00;60484.78;5075990;28;20028;-65
2021/10/30 03:42:41;;;;;;;7.43;4.00;;;;;;;-145.18;100.00;60484.78;5079476;28;20055;-65
2021/10/30 03:45:08;;;;;;;9.80;3.90;;;;;;;-145.18;100.00;60484.78;5078755;28;20091;-65
2021/10/30 03:47:34;;;;;;;11.43;3.67;;;;;;;-145.18;100.00;60484.78;5078937;28;20491;-65
2021/10/30 03:50:00;;;;;;;9.40;4.37;;;;;;;-145.18;100.00;60484.78;5076882;28;20072;-65
2021/10/30 03:52:25;;;;;;;10.00;4.30;;;;;;;-145.18;100.00;60484.78;5064134;28;20024;-68
2021/10/30 03:54:53;;;;;;;8.10;3.70;;;;;;;-145.18;100.00;60484.78;5073218;28;20028;-67
2021/10/30 03:57:19;;;;;;;10.47;4.47;;;;;;;-145.18;100.00;60484.78;5076280;28;20074;-67
2021/10/30 03:59:45;;;;;;;7.70;3.90;;;;;;;-145.18;100.00;60484.78;5073943;28;20024;-67
2021/10/30 04:02:10;;;;;;;9.20;3.97;;;;;;;-145.18;100.00;60484.78;5077089;28;20032;-67
2021/10/30 04:04:36;;;;;;;9.13;3.70;;;;;;;-145.18;100.00;60484.78;5074862;28;20070;-67
2021/10/30 04:07:02;;;;;;;9.10;4.03;;;;;;;-145.18;100.00;60484.78;5079063;28;20491;-67
2021/10/30 04:09:28;;;;;;;9.17;3.97;;;;;;;-145.18;100.00;60484.78;5079240;28;20028;-66
2021/10/30 04:11:53;;;;;;;8.70;3.80;;;;;;;-145.18;100.00;60484.78;5079242;28;20031;-67
2021/10/30 04:14:20;;;;;;;7.43;3.90;;;;;;;-145.18;100.00;60484.78;5078094;28;20288;-67
2021/10/30 04:16:46;;;;;;;6.60;3.70;;;;;;;-145.18;100.00;60484.78;5073590;28;20145;-67
2021/10/30 04:19:13;;;;;;;7.37;4.07;;;;;;;-145.18;100.00;60484.78;5068904;28;20039;-68
2021/10/30 04:21:42;;;;;;;7.50;3.80;;;;;;;-145.18;100.00;60484.78;5068985;28;20058;-67
2021/10/30 04:24:08;;;;;;;8.60;3.90;;;;;;;-145.18;100.00;60484.78;5063062;28;20120;-67
2021/10/30 04:26:34;;;;;;;10.03;4.03;;;;;;;-145.18;100.00;60484.78;5072254;28;20704;-66
2021/10/30 04:29:00;;;;;;;8.87;4.50;;;;;;;-145.18;100.00;60484.78;5077373;28;20063;-66
2021/10/30 04:31:28;;;;;;;12.27;4.63;;;;;;;-145.18;100.00;60484.78;5073309;28;20039;-67
2021/10/30 04:33:59;;;;;;;9.37;3.60;;;;;;;-145.18;100.00;60484.78;5078884;28;20028;-67
2021/10/30 04:36:27;;;;;;;7.27;3.70;;;;;;;-145.18;100.00;60484.78;5068386;28;20186;-67
2021/10/30 04:38:53;;;;;;;8.40;4.10;;;;;;;-145.18;100.00;60484.78;5079744;28;20486;-68
2021/10/30 04:41:19;;;;;;;15.17;4.43;;;;;;;-145.18;100.00;60484.78;5073047;28;20024;-67
2021/10/30 04:43:45;;;;;;;8.70;3.93;;;;;;;-145.18;100.00;60484.78;5079516;28;20030;-67
2021/10/30 04:46:14;;;;;;;11.53;4.60;;;;;;;-145.18;100.00;60484.78;5067816;28;20109;-66
2021/10/30 04:48:40;;;;;;;9.40;4.07;;;;;;;-145.18;100.00;60484.78;5078766;28;20269;-66
2021/10/30 04:51:06;;;;;;;10.43;4.27;;;;;;;-145.18;100.00;60484.78;5071384;28;20377;-66
2021/10/30 04:53:37;;;;;;;9.47;4.13;;;;;;;-145.18;100.00;60484.78;5074940;28;20614;-66
2021/10/30 04:56:03;;;;;;;7.93;4.50;;;;;;;-145.18;100.00;60484.78;5077861;28;20028;-68
2021/10/30 04:58:29;;;;;;;11.70;4.80;;;;;;;-145.18;100.00;60484.78;5072633;28;20418;-67
2021/10/30 05:00:54;;;;;;;9.43;4.20;;;;;;;-145.18;100.00;60484.78;5078228;28;20039;-66
2021/10/30 05:03:20;;;;;;;12.63;4.77;;;;;;;-145.18;100.00;60484.78;5076139;28;20047;-66
2021/10/30 05:05:46;;;;;;;9.20;4.23;;;;;;;-145.18;100.00;60484.78;5077730;28;20530;-66
2021/10/30 05:08:11;;;;;;;10.90;4.80;;;;;;;-145.18;100.00;60484.78;5070852;28;20032;-66
2021/10/30 05:10:40;;;;;;;9.73;4.70;;;;;;;-145.18;100.00;60484.78;5077833;28;20244;-65
2021/10/30 05:13:05;;;;;;;11.00;5.40;;;;;;;-145.18;100.00;60484.78;5078904;28;20074;-66
2021/10/30 05:15:32;;;;;;;13.80;4.40;;;;;;;-145.18;100.00;60484.78;5070943;28;20052;-66
2021/10/30 05:17:59;;;;;;;11.20;4.70;;;;;;;-145.18;100.00;60484.78;5074944;28;20258;-66
2021/10/30 05:20:28;;;;;;;8.90;4.57;;;;;;;-145.18;100.00;60484.78;5072975;28;20028;-67
2021/10/30 05:22:54;;;;;;;10.80;4.53;;;;;;;-145.18;100.00;60484.78;5077982;28;20032;-66
2021/10/30 05:25:19;;;;;;;9.63;4.53;;;;;;;-145.18;100.00;60484.78;5071931;28;20115;-66
2021/10/30 05:27:45;;;;;;;12.90;5.57;;;;;;;-145.18;100.00;60484.78;5067716;28;20067;-66
2021/10/30 05:30:10;;;;;;;10.50;5.20;;;;;;;-145.18;100.00;60484.78;5073058;28;20035;-66
2021/10/30 05:32:36;;;;;;;11.30;5.27;;;;;;;-145.18;100.00;60484.78;5077835;28;20123;-65
2021/10/30 05:35:02;;;;;;;14.70;5.43;;;;;;;-145.18;100.00;60484.78;5077732;28;20066;-65
2021/10/30 05:37:27;;;;;;;12.17;5.20;;;;;;;-145.18;100.00;60484.78;5074460;28;20032;-66
2021/10/30 05:39:53;;;;;;;10.90;5.40;;;;;;;-145.18;100.00;60484.78;5079906;28;20336;-65
2021/10/30 05:42:19;;;;;;;11.23;5.87;;;;;;;-145.18;100.00;60484.78;5075365;28;20035;-66
2021/10/30 05:44:45;;;;;;;12.17;5.70;;;;;;;-145.18;100.00;60484.78;5076542;28;20115;-65
2021/10/30 05:47:11;;;;;;;12.37;5.70;;;;;;;-145.18;100.00;60484.78;5078221;28;20375;-66
2021/10/30 05:49:38;;;;;;;12.00;5.73;;;;;;;-145.18;100.00;60484.78;5075038;28;20024;-65
2021/10/30 05:52:05;;;;;;;12.57;5.97;;;;;;;-145.18;100.00;60484.78;5082026;28;20059;-65
2021/10/30 05:54:31;;;;;;;12.23;5.73;;;;;;;-145.18;100.00;60484.78;5081464;28;20026;-68
2021/10/30 05:56:56;;;;;;;13.00;6.00;;;;;;;-145.18;100.00;60484.78;5078156;28;20409;-66
2021/10/30 05:59:22;;;;;;;10.83;5.60;;;;;;;-145.18;100.00;60484.78;5077318;28;20640;-70
2021/10/30 06:01:47;;;;;;;14.60;6.30;;;;;;;-145.18;100.00;60484.78;5080162;28;20067;-70
2021/10/30 06:04:13;;;;;;;12.97;5.93;;;;;;;-145.18;100.00;60484.78;5081317;28;20043;-70
2021/10/30 06:06:38;;;;;;;13.63;6.00;;;;;;;-145.18;100.00;60484.78;5075610;28;20026;-70
2021/10/30 06:09:04;;;;;;;13.60;6.00;;;;;;;-145.18;100.00;60484.78;5076367;28;20083;-70
2021/10/30 06:11:29;;;;;;;10.90;5.70;;;;;;;-145.18;100.00;60484.78;5080691;28;20550;-70
2021/10/30 06:13:55;;;;;;;16.63;6.03;;;;;;;-145.18;100.00;60484.78;5075635;28;20175;-72
2021/10/30 06:16:20;;;;;;;14.03;6.10;;;;;;;-145.18;100.00;60484.78;5081091;28;20303;-70
2021/10/30 06:18:46;;;;;;;11.77;5.70;;;;;;;-145.18;100.00;60484.78;5080301;28;20027;-70
2021/10/30 06:21:11;;;;;;;14.93;6.40;;;;;;;-145.18;100.00;60484.78;5078055;28;20066;-70
2021/10/30 06:23:37;;;;;;;11.90;5.97;;;;;;;-145.18;100.00;60484.78;5080734;28;20034;-72
2021/10/30 06:26:03;;;;;;;11.40;5.37;;;;;;;-145.18;100.00;60484.78;5077319;28;20020;-70
2021/10/30 06:28:29;;;;;;;14.37;6.10;;;;;;;-145.18;100.00;60484.78;5079295;28;20041;-70
2021/10/30 06:30:54;;;;;;;14.30;6.17;;;;;;;-145.18;100.00;60484.78;5075460;28;20480;-70
2021/10/30 06:33:20;;;;;;;15.37;6.50;;;;;;;-145.18;100.00;60484.78;5078886;28;20035;-72
2021/10/30 06:35:45;;;;;;;12.63;6.30;;;;;;;-145.18;100.00;60484.78;5079896;28;20184;-70
2021/10/30 06:38:12;;;;;;;13.93;6.30;;;;;;;-145.18;100.00;60484.78;5080646;28;20456;-72
2021/10/30 06:40:38;;;;;;;13.33;6.00;;;;;;;-145.18;100.00;60484.78;5073370;28;20494;-72
2021/10/30 06:43:03;;;;;;;14.43;6.73;;;;;;;-145.18;100.00;60484.78;5080230;28;20020;-69
2021/10/30 06:45:29;;;;;;;13.93;6.97;;;;;;;-145.18;100.00;60484.78;5077819;28;20408;-70
2021/10/30 06:47:54;;;;;;;12.47;5.80;;;;;;;-145.18;100.00;60484.78;5077244;28;20076;-72
2021/10/30 06:50:20;;;;;;;13.00;6.20;;;;;;;-145.18;100.00;60484.78;5072284;28;20253;-72
2021/10/30 06:52:49;;;;;;;13.40;6.30;;;;;;;-145.18;100.00;60484.78;5080437;28;20472;-72
2021/10/30 06:55:15;;;;;;;12.33;6.20;;;;;;;-145.18;100.00;60484.78;5073723;28;20380;-72
2021/10/30 06:57:41;;;;;;;13.07;6.10;;;;;;;-145.18;100.00;60484.78;5081480;28;20333;-72
2021/10/30 07:00:08;;;;;;;12.23;5.93;;;;;;;-145.18;100.00;60484.78;5074659;28;20070;-72
2021/10/30 07:02:34;;;;;;;14.63;6.43;;;;;;;-145.18;100.00;60484.78;5080797;28;20020;-72
2021/10/30 07:05:00;;;;;;;12.50;6.17;;;;;;;-145.18;100.00;60484.78;5078067;28;20102;-72
2021/10/30 07:07:26;;;;;;;14.80;6.37;;;;;;;-145.18;100.00;60484.78;5072601;28;20111;-72
2021/10/30 07:09:58;;;;;;;12.67;5.90;;;;;;;-145.18;100.00;60484.78;5075900;28;20024;-72
2021/10/30 07:12:28;;;;;;;15.80;6.40;;;;;;;-145.18;100.00;60484.78;5074585;28;20016;-72
2021/10/30 07:14:54;;;;;;;14.53;6.10;;;;;;;-145.18;100.00;60484.78;5076547;28;20365;-70
2021/10/30 07:17:20;;;;;;;13.80;6.00;;;;;;;-145.18;100.00;60484.78;5071121;28;20031;-71
2021/10/30 07:19:45;;;;;;;12.73;5.50;;;;;;;-145.18;100.00;60484.78;5074899;28;20392;-71
2021/10/30 07:22:11;;;;;;;13.57;5.90;;;;;;;-145.18;100.00;60484.78;5071625;28;20024;-71
2021/10/30 07:24:36;;;;;;;14.43;6.30;;;;;;;-145.18;100.00;60484.78;5077979;28;20043;-71
2021/10/30 07:27:02;;;;;;;12.20;6.13;;;;;;;-145.18;100.00;60484.78;5068941;28;20021;-71
2021/10/30 07:29:27;;;;;;;12.13;5.70;;;;;;;-145.18;100.00;60484.78;5078959;28;20067;-71
2021/10/30 07:31:53;;;;;;;12.60;6.20;;;;;;;-145.18;100.00;60484.78;5067958;28;20051;-71
2021/10/30 07:34:18;;;;;;;13.43;6.00;;;;;;;-145.18;100.00;60484.78;5073620;28;21525;-71
2021/10/30 07:36:44;;;;;;;13.87;6.03;;;;;;;-145.18;100.00;60484.78;5071846;28;20534;-71
2021/10/30 07:39:10;;;;;;;12.13;6.10;;;;;;;-145.18;100.00;60484.78;5070186;28;20163;-71
2021/10/30 07:41:35;;;;;;;14.13;6.37;;;;;;;-145.18;100.00;60484.78;5073173;28;20579;-71
2021/10/30 07:44:01;;;;;;;15.43;6.53;;;;;;;-145.18;100.00;60484.78;5072666;28;20115;-71
2021/10/30 07:46:26;;;;;;;12.13;5.77;;;;;;;-145.18;100.00;60484.78;5072185;28;20356;-71
2021/10/30 07:48:53;;;;;;;13.37;6.40;;;;;;;-145.18;100.00;60484.78;5076726;28;20490;-71
2021/10/30 07:51:18;;;;;;;13.53;6.40;;;;;;;-145.18;100.00;60484.78;5075438;28;20184;-71
2021/10/30 07:53:45;;;;;;;11.60;5.63;;;;;;;-145.18;100.00;60484.78;5075562;28;20538;-71
2021/10/30 07:56:11;;;;;;;15.27;5.87;;;;;;;-145.18;100.00;60484.78;5072480;28;20031;-71
2021/10/30 07:58:37;;;;;;;14.97;5.90;;;;;;;-145.18;100.00;60484.78;5073843;28;20028;-71
2021/10/30 08:01:02;;;;;;;11.63;6.40;;;;;;;-145.18;100.00;60484.78;5065629;28;20324;-71
2021/10/30 08:03:28;;;;;;;12.97;5.97;;;;;;;-145.18;100.00;60484.78;5072042;28;20682;-71
2021/10/30 08:05:53;;;;;;;14.23;6.00;;;;;;;-145.18;100.00;60484.78;5074580;28;20152;-71
2021/10/30 08:08:19;;;;;;;15.70;7.00;;;;;;;-145.18;100.00;60484.78;5071565;28;20031;-71
2021/10/30 08:10:44;;;;;;;11.63;6.03;;;;;;;-145.18;100.00;60484.78;5071026;28;20495;-71
2021/10/30 08:13:10;;;;;;;14.80;6.50;;;;;;;-145.18;100.00;60484.78;5080142;28;20169;-71
2021/10/30 08:15:36;;;;;;;12.17;6.13;;;;;;;-145.18;100.00;60484.78;5079880;28;20644;-71
2021/10/30 08:18:02;;;;;;;14.07;6.13;;;;;;;-145.18;100.00;60484.78;5073593;28;20096;-72
2021/10/30 08:20:28;;;;;;;15.90;6.20;;;;;;;-145.18;100.00;60484.78;5075897;28;20598;-71
2021/10/30 08:22:53;;;;;;;13.30;6.50;;;;;;;-145.18;100.00;60484.78;5078165;28;20053;-71
2021/10/30 08:25:20;;;;;;;13.83;6.53;;;;;;;-145.18;100.00;60484.78;5079473;28;20020;-71
2021/10/30 08:27:45;;;;;;;12.63;6.23;;;;;;;-145.18;100.00;60484.78;5079705;28;20024;-71
2021/10/30 08:30:12;;;;;;;14.47;6.73;;;;;;;-145.18;100.00;60484.78;5075985;28;20055;-71
2021/10/30 08:32:38;;;;;;;14.80;6.27;;;;;;;-145.18;100.00;60484.78;5077816;28;20039;-71
2021/10/30 08:35:04;;;;;;;14.83;6.67;;;;;;;-145.18;100.00;60484.78;5076877;28;20024;-71
2021/10/30 08:37:30;;;;;;;16.10;7.27;;;;;;;-145.18;100.00;60484.78;5079617;28;20028;-70
2021/10/30 08:39:55;;;;;;;14.83;6.60;;;;;;;-145.18;100.00;60484.78;5080352;28;20050;-78
2021/10/30 08:42:22;;;;;;;14.27;6.40;;;;;;;-145.18;100.00;60484.78;5078370;28;20024;-70
2021/10/30 08:44:49;;;;;;;16.33;7.17;;;;;;;-145.18;100.00;60484.78;5063295;28;20051;-70
2021/10/30 08:47:17;;;;;;;16.97;7.03;;;;;;;-145.18;100.00;60484.78;5073921;28;20055;-70
2021/10/30 08:49:44;;;;;;;15.07;7.10;;;;;;;-145.18;100.00;60484.78;5073861;28;20027;-70
2021/10/30 08:52:09;;;;;;;16.00;7.13;;;;;;;-145.18;100.00;60484.78;5075345;28;20295;-70
2021/10/30 08:54:36;;;;;;;17.27;7.80;;;;;;;-145.18;100.00;60484.78;5077188;28;20162;-70
2021/10/30 08:57:02;;;;;;;14.07;6.43;;;;;;;-145.18;100.00;60484.78;5078701;28;20028;-70
2021/10/30 08:59:45;;;;;;;16.90;7.33;;;;;;;-145.18;100.00;60484.78;5074116;28;20028;-70
2021/10/30 09:02:28;;;;;;;17.17;6.43;;;;;;;-145.18;100.00;60484.78;5076317;28;20506;-70
2021/10/30 09:05:16;;;;;;;14.40;6.97;;;;;;;-145.18;100.00;60484.78;5069195;28;20047;-70
2021/10/30 09:07:44;;;;;;;12.87;6.27;;;;;;;-145.18;100.00;60484.78;5071375;28;20046;-70
2021/10/30 09:10:28;;;;;;;16.50;6.87;;;;;;;-145.18;100.00;60484.78;5065736;28;20211;-70
2021/10/30 09:12:59;;;;;;;13.97;6.70;;;;;;;-145.18;100.00;60484.78;5070427;28;20046;-70
2021/10/30 09:15:52;;;;;;;13.83;6.70;;;;;;;-145.18;100.00;60484.78;5071375;28;20020;-70
2021/10/30 09:18:34;;;;;;;14.10;6.93;;;;;;;-145.18;100.00;60484.78;5065425;28;20044;-70
2021/10/30 09:21:18;;;;;;;16.60;6.80;;;;;;;-145.18;100.00;60484.78;5074199;28;20451;-74
2021/10/30 09:23:58;;;;;;;12.40;6.43;;;;;;;-145.18;100.00;60484.78;5073723;28;20412;-71
2021/10/30 09:26:30;;;;;;;17.10;6.23;;;;;;;-145.18;100.00;60484.78;5069657;28;20034;-71
2021/10/30 09:29:16;;;;;;;15.63;6.28;;;;;;;-145.18;100.00;60484.78;5069800;28;20032;-71
2021/10/30 09:31:42;;;;;;;14.27;6.20;;;;;;;-145.18;100.00;60484.78;5071009;28;20036;-71
2021/10/30 09:34:09;;;;;;;13.50;6.47;;;;;;;-145.18;100.00;60484.78;5068588;28;20315;-71
2021/10/30 09:36:39;;;;;;;12.77;6.00;;;;;;;-145.18;100.00;60484.78;5074902;28;20020;-71
2021/10/30 09:39:10;;;;;;;14.93;5.63;;;;;;;-145.18;100.00;60484.78;5071579;28;20054;-69
2021/10/30 09:41:41;;;;;;;13.97;6.83;;;;;;;-145.18;100.00;60484.78;5068675;28;20428;-70
2021/10/30 09:44:19;;;;;;;13.90;5.77;;;;;;;-145.18;100.00;60484.78;5074386;28;20051;-70
2021/10/30 09:46:52;;;;;;;13.50;6.50;;;;;;;-145.18;100.00;60484.78;5063522;28;20039;-70
2021/10/30 09:49:24;;;;;;;13.07;6.03;;;;;;;-145.18;100.00;60484.78;5072029;28;20024;-70
2021/10/30 09:51:53;;;;;;;12.13;5.88;;;;;;;-145.18;100.00;60484.78;5074818;28;20541;-70
2021/10/30 09:54:40;;;;;;;12.40;5.67;;;;;;;-145.18;100.00;60484.78;5070669;28;20067;-70
2021/10/30 09:57:07;;;;;;;11.73;5.60;;;;;;;-145.18;100.00;60484.78;5071393;28;20534;-70
2021/10/30 09:59:39;;;;;;;11.10;5.40;;;;;;;-145.18;100.00;60484.78;5074211;28;20559;-70
2021/10/30 10:02:07;;;;;;;11.40;5.72;;;;;;;-145.18;100.00;60484.78;5067385;28;20081;-70
2021/10/30 10:04:45;;;;;;;10.63;4.93;;;;;;;-145.18;100.00;60484.78;5073273;28;20055;-70
2021/10/30 10:07:12;;;;;;;12.27;5.50;;;;;;;-145.18;100.00;60484.78;5075556;28;20174;-70
2021/10/30 10:09:38;;;;;;;11.67;5.47;;;;;;;-145.18;100.00;60484.78;5072601;28;20344;-70
2021/10/30 10:12:05;;;;;;;12.40;5.60;;;;;;;-145.18;100.00;60484.78;5070281;28;20205;-70
2021/10/30 10:14:31;;;;;;;10.37;5.33;;;;;;;-145.18;100.00;60484.78;5074132;28;20032;-70
2021/10/30 10:16:57;;;;;;;12.80;4.83;;;;;;;-145.18;100.00;60484.78;5074552;28;20032;-70
2021/10/30 10:19:23;;;;;;;11.60;5.13;;;;;;;-145.18;100.00;60484.78;5072999;28;20575;-70
2021/10/30 10:21:51;;;;;;;11.50;4.93;;;;;;;-145.18;100.00;60484.78;5075050;28;20119;-70
2021/10/30 10:24:20;;;;;;;10.90;5.43;;;;;;;-145.18;100.00;60484.78;5066725;28;20139;-70
2021/10/30 10:26:53;;;;;;;12.30;5.07;;;;;;;-145.18;100.00;60484.78;5076583;28;20028;-70
2021/10/30 10:29:55;;;;;;;10.67;5.10;;;;;;;-145.18;100.00;60484.78;5072413;28;20237;-70
2021/10/30 10:32:25;;;;;;;10.10;4.83;;;;;;;-145.18;100.00;60484.78;5064951;28;20043;-70
2021/10/30 10:34:52;;;;;;;9.70;4.87;;;;;;;-145.18;100.00;60484.78;5078364;28;20051;-70
2021/10/30 10:37:26;;;;;;;11.90;4.93;;;;;;;-145.18;100.00;60484.78;5075925;28;20046;-71
2021/10/30 10:39:59;;;;;;;10.03;4.77;;;;;;;-145.18;100.00;60484.78;5078533;28;20062;-71
2021/10/30 10:42:54;;;;;;;9.67;4.40;;;;;;;-145.18;100.00;60484.78;5078127;28;20106;-70
2021/10/30 10:45:20;;;;;;;13.10;5.90;;;;;;;-145.18;100.00;60484.78;5056563;28;20038;-71
2021/10/30 10:47:51;;;;;;;11.30;4.97;;;;;;;-145.18;100.00;60484.78;5078307;28;20388;-71
2021/10/30 10:50:30;;;;;;;11.25;5.18;;;;;;;-145.18;100.00;60484.78;5075995;28;20040;-71
2021/10/30 10:53:16;;;;;;;10.17;4.83;;;;;;;-145.18;100.00;60484.78;5078744;28;20096;-71
2021/10/30 10:56:06;;;;;;;10.80;4.97;;;;;;;-145.18;100.00;60484.78;5077228;28;20039;-71
2021/10/30 10:59:01;;;;;;;9.40;4.63;;;;;;;-145.18;100.00;60484.78;5063469;28;20093;-71
2021/10/30 11:01:28;;;;;;;9.20;4.47;;;;;;;-145.18;100.00;60484.78;5068636;28;20046;-71
2021/10/30 11:04:09;;;;;;;8.93;4.90;;;;;;;-145.18;100.00;60484.78;5077479;28;20593;-69
2021/10/30 11:06:41;;;;;;;11.07;4.97;;;;;;;-145.18;100.00;60484.78;5074073;28;20119;-70